CYO weather

Pickaway County Memorial Airport
Circleville, Ohio, United States

Public forecast

Using degrees Fahrenheit for public forecast. Weather courtesy of forecast.io.

METAR (pilot weather report)

Closest report is Ross County Airport, 4.9 nm (9.1 km) SSW. Retrieved 2019/05/25 06:35 UTC (0 seconds ago):

KRZT 250635Z AUTO 19004KT 10SM CLR 20/20 A3007 RMK AO2

TAF (pilot weather forecast)

Closest forecast is Rickenbacker International Airport, 18.1 nm (33.4 km) N. Retrieved 2019/05/25 06:47 UTC (0 seconds ago):

TAF KLCK 250539Z 2506/2606 10003KT P6SM SKC FM250800 13004KT P6SM SCT250 FM251700 24014G24KT P6SM VCSH SCT050 BKN250 FM252300 24011KT P6SM BKN250